Evanton, United Kingdom
Current Conditions -  °F | °C
As of 11:20 PM on Monday 22 Dec 2014 (Local Time) from EGPE Reporting Station
Few Clouds Few Clouds  
Wind Chill: 32°   Ceiling: Unl
Heat Index: 41°   Visibility: 6mi
Dew Point: 36°   Wind: 17mph
Humidity: 81%   Direction: 230°SW
Pressure: 29.5"   Gusts: NA
Location:  57.66°N, 4.34°W
Report Text: EGPE 222320Z AUTO 23015KT 9999 FEW031/// 05/02 Q0999
Loading
Personal Weather Stations






























Interactive Weather Map New forecast layout! Learn more

10-Day Weather Forecast

Advertisements
Track Severe Weather on mobile